Kristin D — C6XA6 — position and weather

sailwx.info

Track history (hours):
 
Tides and Currents Weather Stations Pressure Air Temp Water Temp Dewpoint Dewpoint Depression Visibility Wind Speed Wind Dir Waves Ship Positions

Kristin D

Last reported at 2015-Jun-26 10:21 UTC. Time now 2015-Jun-30 08:15 UTC.
Position N 63°06' E 007°41'.

Length 90 m; draft 3.9 m.

Type: Cargo ship. MMSI: 311003700.

Date/timePositionNaut miles runAvg speedWind from/ knotsBaromVisibWave heightAir tempDewpointWater temp
2015-Jun-26 10:21N 63°06' E 007°41'2 1.3
2015-Jun-26 08:31N 63°06' E 007°47'0 0.0
2015-Jun-26 06:04N 63°06' E 007°47'0 0.0
2015-Jun-26 05:22N 63°06' E 007°47'0 0.0
2015-Jun-26 03:19N 63°06' E 007°47'0 0.0
2015-Jun-25 21:28N 63°06' E 007°47'0 0.0
2015-Jun-25 20:28N 63°06' E 007°47'0 0.0
2015-Jun-25 18:27N 63°06' E 007°47'0 0.0
2015-Jun-25 17:24N 63°06' E 007°47'0 0.0
2015-Jun-25 16:24N 63°06' E 007°47'0 0.0
2015-Jun-25 15:30N 63°06' E 007°47'0 0.0
2015-Jun-25 13:30N 63°06' E 007°47'0 0.0
2015-Jun-25 12:27N 63°06' E 007°47'0 0.0
2015-Jun-25 07:17N 63°06' E 007°47'0 0.0
2015-Jun-25 05:32N 63°06' E 007°47'0 0.0
2015-Jun-25 04:32N 63°06' E 007°47'2 1.0
2015-Jun-25 02:31N 63°06' E 007°42'245 8.2
2015-Jun-23 20:32N 59°13' E 005°01'8 8.4
2015-Jun-23 19:33N 59°07' E 005°12'510.5
2015-Jun-23 19:05N 59°07' E 005°22'11 0.5
2015-Jun-22 19:32N 59°00' E 005°40'0 0.0
2015-Jun-22 18:32N 59°00' E 005°40'0 0.0
2015-Jun-22 17:32N 59°00' E 005°40'0 0.0
2015-Jun-22 16:29N 59°00' E 005°40'0 0.0
2015-Jun-22 15:29N 59°00' E 005°40'0 0.0
2015-Jun-22 14:29N 59°00' E 005°40'0 0.0
2015-Jun-22 13:29N 59°00' E 005°40'0 0.0
2015-Jun-22 12:29N 59°00' E 005°40'0 0.0
2015-Jun-22 11:32N 59°00' E 005°40'0 0.0
2015-Jun-22 10:29N 59°00' E 005°40'0 0.0
2015-Jun-22 09:32N 59°00' E 005°40'0 0.0
2015-Jun-22 08:29N 59°00' E 005°40'0 0.0
2015-Jun-22 07:32N 59°00' E 005°40'0 0.0
2015-Jun-22 06:32N 59°00' E 005°40'0 0.0
2015-Jun-22 05:32N 59°00' E 005°40'4 3.6
2015-Jun-22 04:33N 59°02' E 005°35'1111.0
2015-Jun-22 03:33N 58°52' E 005°31'4 3.0
2015-Jun-22 02:10N 58°49' E 005°24'0 0.0
2015-Jun-22 01:22N 58°49' E 005°24'0 0.0
2015-Jun-22 00:22N 58°49' E 005°24'0 0.1
2015-Jun-21 23:22N 58°49' E 005°24'0 0.0
2015-Jun-21 22:31N 58°49' E 005°24'0 0.0
2015-Jun-21 21:31N 58°49' E 005°24'0 0.1
2015-Jun-21 20:25N 58°49' E 005°24'0 0.0
2015-Jun-21 19:21N 58°49' E 005°24'0 0.0
2015-Jun-21 18:27N 58°49' E 005°24'0 0.0
2015-Jun-21 17:21N 58°49' E 005°24'0 0.0
2015-Jun-21 16:30N 58°49' E 005°24'0 0.0
2015-Jun-21 15:15N 58°49' E 005°24'0 0.0
2015-Jun-21 14:27N 58°49' E 005°24'0 0.0
2015-Jun-21 13:15N 58°49' E 005°24'0 0.0
2015-Jun-21 12:27N 58°49' E 005°24'0 0.0
2015-Jun-21 11:33N 58°49' E 005°24'0 0.0
2015-Jun-21 10:24N 58°49' E 005°24'0 0.0
2015-Jun-21 09:27N 58°49' E 005°24'0 0.0
2015-Jun-21 08:27N 58°49' E 005°24'0 0.1
2015-Jun-21 07:33N 58°49' E 005°24'0 0.0
2015-Jun-21 06:15N 58°49' E 005°24'0 0.0
2015-Jun-21 05:33N 58°49' E 005°24'0 0.0
2015-Jun-21 04:33N 58°49' E 005°24'0 0.0
2015-Jun-21 03:27N 58°49' E 005°24'0 0.0
2015-Jun-21 02:33N 58°49' E 005°24'0 0.0
2015-Jun-21 01:33N 58°49' E 005°24'0 0.0
2015-Jun-21 00:33N 58°49' E 005°24'0 0.0
2015-Jun-20 19:33N 58°49' E 005°24'0 0.0
2015-Jun-20 18:12N 58°49' E 005°24'0 0.0
2015-Jun-20 17:33N 58°49' E 005°24'0 0.0
2015-Jun-20 16:27N 58°49' E 005°24'0 0.0
2015-Jun-20 15:33N 58°49' E 005°24'0 0.0
2015-Jun-20 14:30N 58°49' E 005°24'0 0.0
2015-Jun-20 13:33N 58°49' E 005°24'0 0.0
2015-Jun-20 12:30N 58°49' E 005°24'0 0.0
2015-Jun-20 11:33N 58°49' E 005°24'1 0.4
2015-Jun-20 08:33N 58°48' E 005°23'8 8.2
2015-Jun-20 07:33N 58°40' E 005°28'9 8.1
2015-Jun-20 06:30N 58°32' E 005°34'7 7.5
2015-Jun-20 05:33N 58°27' E 005°43'8 7.5
2015-Jun-20 04:32N 58°22' E 005°53'160 8.8
2015-Jun-19 10:19N 57°46' E 010°48'810.4
2015-Jun-19 09:32N 57°39' E 010°42'9 9.1
2015-Jun-19 08:33N 57°30' E 010°44'10 9.4
2015-Jun-19 07:29N 57°20' E 010°43'10 8.6
2015-Jun-19 06:20N 57°10' E 010°46'136 3.0
2015-Jun-17 09:07N 54°56' E 010°09'611.0
2015-Jun-17 08:33N 54°50' E 010°14'1111.4
2015-Jun-17 07:33N 54°39' E 010°17'1010.3
2015-Jun-17 06:33N 54°28' E 010°16'8 7.9
2015-Jun-17 05:33N 54°22' E 010°09'3 3.1
2015-Jun-17 04:33N 54°22' E 010°03'8 7.7
2015-Jun-17 03:33N 54°22' E 009°50'9 8.3
2015-Jun-17 02:31N 54°17' E 009°38'16 8.0
2015-Jun-17 00:33N 54°05' E 009°19'9 8.8
2015-Jun-16 23:33N 53°57' E 009°14'5 4.7
2015-Jun-16 22:33N 53°54' E 009°09'6 5.8
2015-Jun-16 21:33N 53°51' E 008°60'1211.6
2015-Jun-16 20:33N 53°54' E 008°41'1312.5
2015-Jun-16 19:33N 53°59' E 008°21'1211.9
2015-Jun-16 18:33N 53°58' E 008°01'1010.1
2015-Jun-16 17:33N 53°54' E 007°46'1010.1
2015-Jun-16 16:33N 53°51' E 008°02'1313.0
2015-Jun-16 15:33N 53°43' E 008°19'1413.5
2015-Jun-16 14:33N 53°32' E 008°34'1110.8
2015-Jun-16 13:33N 53°22' E 008°30'10 9.6
2015-Jun-16 12:32N 53°12' E 008°31'9 9.0
2015-Jun-16 11:33N 53°07' E 008°43'2 2.3
2015-Jun-16 10:32N 53°06' E 008°46'  
Track history (hours):
 
Tides and Currents Weather Stations Pressure Air Temp Water Temp Dewpoint Dewpoint Depression Visibility Wind Speed Wind Dir Waves Ship Positions

Kristin D

Last reported at 2015-Jun-26 10:21 UTC. Time now 2015-Jun-30 08:15 UTC.
Position N 63°06' E 007°41'.

Length 90 m; draft 3.9 m.

Type: Cargo ship. MMSI: 311003700.

Date/timePositionNaut miles runAvg speedWind from/ knotsBaromVisibWave heightAir tempDewpointWater temp
2015-Jun-26 10:21N 63°06' E 007°41'2 1.3
2015-Jun-26 08:31N 63°06' E 007°47'0 0.0
2015-Jun-26 06:04N 63°06' E 007°47'0 0.0
2015-Jun-26 05:22N 63°06' E 007°47'0 0.0
2015-Jun-26 03:19N 63°06' E 007°47'0 0.0
2015-Jun-25 21:28N 63°06' E 007°47'0 0.0
2015-Jun-25 20:28N 63°06' E 007°47'0 0.0
2015-Jun-25 18:27N 63°06' E 007°47'0 0.0
2015-Jun-25 17:24N 63°06' E 007°47'0 0.0
2015-Jun-25 16:24N 63°06' E 007°47'0 0.0
2015-Jun-25 15:30N 63°06' E 007°47'0 0.0
2015-Jun-25 13:30N 63°06' E 007°47'0 0.0
2015-Jun-25 12:27N 63°06' E 007°47'0 0.0
2015-Jun-25 07:17N 63°06' E 007°47'0 0.0
2015-Jun-25 05:32N 63°06' E 007°47'0 0.0
2015-Jun-25 04:32N 63°06' E 007°47'2 1.0
2015-Jun-25 02:31N 63°06' E 007°42'245 8.2
2015-Jun-23 20:32N 59°13' E 005°01'8 8.4
2015-Jun-23 19:33N 59°07' E 005°12'510.5
2015-Jun-23 19:05N 59°07' E 005°22'11 0.5
2015-Jun-22 19:32N 59°00' E 005°40'0 0.0
2015-Jun-22 18:32N 59°00' E 005°40'0 0.0
2015-Jun-22 17:32N 59°00' E 005°40'0 0.0
2015-Jun-22 16:29N 59°00' E 005°40'0 0.0
2015-Jun-22 15:29N 59°00' E 005°40'0 0.0
2015-Jun-22 14:29N 59°00' E 005°40'0 0.0
2015-Jun-22 13:29N 59°00' E 005°40'0 0.0
2015-Jun-22 12:29N 59°00' E 005°40'0 0.0
2015-Jun-22 11:32N 59°00' E 005°40'0 0.0
2015-Jun-22 10:29N 59°00' E 005°40'0 0.0
2015-Jun-22 09:32N 59°00' E 005°40'0 0.0
2015-Jun-22 08:29N 59°00' E 005°40'0 0.0
2015-Jun-22 07:32N 59°00' E 005°40'0 0.0
2015-Jun-22 06:32N 59°00' E 005°40'0 0.0
2015-Jun-22 05:32N 59°00' E 005°40'4 3.6
2015-Jun-22 04:33N 59°02' E 005°35'1111.0
2015-Jun-22 03:33N 58°52' E 005°31'4 3.0
2015-Jun-22 02:10N 58°49' E 005°24'0 0.0
2015-Jun-22 01:22N 58°49' E 005°24'0 0.0
2015-Jun-22 00:22N 58°49' E 005°24'0 0.1
2015-Jun-21 23:22N 58°49' E 005°24'0 0.0
2015-Jun-21 22:31N 58°49' E 005°24'0 0.0
2015-Jun-21 21:31N 58°49' E 005°24'0 0.1
2015-Jun-21 20:25N 58°49' E 005°24'0 0.0
2015-Jun-21 19:21N 58°49' E 005°24'0 0.0
2015-Jun-21 18:27N 58°49' E 005°24'0 0.0
2015-Jun-21 17:21N 58°49' E 005°24'0 0.0
2015-Jun-21 16:30N 58°49' E 005°24'0 0.0
2015-Jun-21 15:15N 58°49' E 005°24'0 0.0
2015-Jun-21 14:27N 58°49' E 005°24'0 0.0
2015-Jun-21 13:15N 58°49' E 005°24'0 0.0
2015-Jun-21 12:27N 58°49' E 005°24'0 0.0
2015-Jun-21 11:33N 58°49' E 005°24'0 0.0
2015-Jun-21 10:24N 58°49' E 005°24'0 0.0
2015-Jun-21 09:27N 58°49' E 005°24'0 0.0
2015-Jun-21 08:27N 58°49' E 005°24'0 0.1
2015-Jun-21 07:33N 58°49' E 005°24'0 0.0
2015-Jun-21 06:15N 58°49' E 005°24'0 0.0
2015-Jun-21 05:33N 58°49' E 005°24'0 0.0
2015-Jun-21 04:33N 58°49' E 005°24'0 0.0
2015-Jun-21 03:27N 58°49' E 005°24'0 0.0
2015-Jun-21 02:33N 58°49' E 005°24'0 0.0
2015-Jun-21 01:33N 58°49' E 005°24'0 0.0
2015-Jun-21 00:33N 58°49' E 005°24'0 0.0
2015-Jun-20 19:33N 58°49' E 005°24'0 0.0
2015-Jun-20 18:12N 58°49' E 005°24'0 0.0
2015-Jun-20 17:33N 58°49' E 005°24'0 0.0
2015-Jun-20 16:27N 58°49' E 005°24'0 0.0
2015-Jun-20 15:33N 58°49' E 005°24'0 0.0
2015-Jun-20 14:30N 58°49' E 005°24'0 0.0
2015-Jun-20 13:33N 58°49' E 005°24'0 0.0
2015-Jun-20 12:30N 58°49' E 005°24'0 0.0
2015-Jun-20 11:33N 58°49' E 005°24'1 0.4
2015-Jun-20 08:33N 58°48' E 005°23'8 8.2
2015-Jun-20 07:33N 58°40' E 005°28'9 8.1
2015-Jun-20 06:30N 58°32' E 005°34'7 7.5
2015-Jun-20 05:33N 58°27' E 005°43'8 7.5
2015-Jun-20 04:32N 58°22' E 005°53'160 8.8
2015-Jun-19 10:19N 57°46' E 010°48'810.4
2015-Jun-19 09:32N 57°39' E 010°42'9 9.1
2015-Jun-19 08:33N 57°30' E 010°44'10 9.4
2015-Jun-19 07:29N 57°20' E 010°43'10 8.6
2015-Jun-19 06:20N 57°10' E 010°46'136 3.0
2015-Jun-17 09:07N 54°56' E 010°09'611.0
2015-Jun-17 08:33N 54°50' E 010°14'1111.4
2015-Jun-17 07:33N 54°39' E 010°17'1010.3
2015-Jun-17 06:33N 54°28' E 010°16'8 7.9
2015-Jun-17 05:33N 54°22' E 010°09'3 3.1
2015-Jun-17 04:33N 54°22' E 010°03'8 7.7
2015-Jun-17 03:33N 54°22' E 009°50'9 8.3
2015-Jun-17 02:31N 54°17' E 009°38'16 8.0
2015-Jun-17 00:33N 54°05' E 009°19'9 8.8
2015-Jun-16 23:33N 53°57' E 009°14'5 4.7
2015-Jun-16 22:33N 53°54' E 009°09'6 5.8
2015-Jun-16 21:33N 53°51' E 008°60'1211.6
2015-Jun-16 20:33N 53°54' E 008°41'1312.5
2015-Jun-16 19:33N 53°59' E 008°21'1211.9
2015-Jun-16 18:33N 53°58' E 008°01'1010.1
2015-Jun-16 17:33N 53°54' E 007°46'1010.1
2015-Jun-16 16:33N 53°51' E 008°02'1313.0
2015-Jun-16 15:33N 53°43' E 008°19'1413.5
2015-Jun-16 14:33N 53°32' E 008°34'1110.8
2015-Jun-16 13:33N 53°22' E 008°30'10 9.6
2015-Jun-16 12:32N 53°12' E 008°31'9 9.0
2015-Jun-16 11:33N 53°07' E 008°43'2 2.3
2015-Jun-16 10:32N 53°06' E 008°46'  

Dump ship's entire track history